< < Back
Terminal Aerodrome Forecast


Current Version              Previous Versions:   1  2  3  4  5  6  7  8  9  

Terminal Aerodrome Forecast

279
FTUS44 KMOB 300500
TAFPNS
TAF
KPNS 300520Z 3006/3106 35004KT P6SM SCT060
     FM301300 34008KT P6SM SCT020=

Latest METAR

072
SAUS70 KWBC 310300 RRE
MTRPNS
METAR KPNS 310253Z 34003KT 10SM CLR 22/16 A3001 RMK AO2 SLP164 T02220161
53009


USA.gov is the U.S. government's official web portal to all federal, state and local government web resources and services.